createdAt,value
2023-01-10T00:02:19.345Z,1.95
2023-01-10T00:04:46.493Z,1.85
2023-01-10T00:07:13.741Z,1.83
2023-01-10T00:09:41.583Z,2.08
2023-01-10T00:12:27.621Z,2.95
2023-01-10T00:15:03.397Z,2.38
2023-01-10T00:17:31.115Z,2.22
2023-01-10T00:20:04.849Z,2.60
2023-01-10T00:22:35.353Z,1.92
2023-01-10T00:25:04.890Z,2.30
2023-01-10T00:27:32.115Z,2.28
2023-01-10T00:30:01.649Z,2.40
2023-01-10T00:32:34.424Z,2.45
2023-01-10T00:35:02.319Z,2.80
2023-01-10T00:37:37.106Z,2.38
2023-01-10T00:40:04.875Z,2.20
2023-01-10T00:42:51.258Z,1.90
2023-01-10T00:45:20.066Z,2.70
2023-01-10T00:47:47.510Z,1.90
2023-01-10T00:50:14.779Z,2.13
2023-01-10T00:52:41.924Z,1.90
2023-01-10T00:55:09.437Z,2.63
2023-01-10T00:57:45.786Z,2.67
2023-01-10T01:00:13.277Z,1.70
2023-01-10T01:02:40.408Z,2.03
2023-01-10T01:05:16.903Z,2.03
2023-01-10T01:07:44.169Z,1.88
2023-01-10T01:10:26.807Z,1.80
2023-01-10T01:12:55.236Z,1.65
2023-01-10T01:15:22.988Z,1.67
2023-01-10T01:17:50.336Z,2.25
2023-01-10T01:20:17.601Z,1.85
2023-01-10T01:22:45.080Z,1.77
2023-01-10T01:25:12.637Z,3.28
2023-01-10T01:27:42.573Z,2.33
2023-01-10T01:30:10.417Z,1.83
2023-01-10T01:32:43.831Z,2.72
2023-01-10T01:35:18.075Z,2.45
2023-01-10T01:37:45.528Z,1.77
2023-01-10T01:40:20.616Z,1.95
2023-01-10T01:42:58.645Z,2.13
2023-01-10T01:45:36.229Z,1.85
2023-01-10T01:48:22.592Z,1.70
2023-01-10T01:50:55.935Z,1.50
2023-01-10T01:53:33.515Z,1.70
2023-01-10T01:56:04.152Z,1.70
2023-01-10T01:58:38.897Z,1.85
2023-01-10T02:01:06.593Z,1.75
2023-01-10T02:03:42.358Z,1.80
2023-01-10T02:06:10.135Z,2.00
2023-01-10T02:08:43.261Z,2.20
2023-01-10T02:11:11.571Z,1.85
2023-01-10T02:13:48.727Z,2.13
2023-01-10T02:16:19.203Z,1.58
2023-01-10T02:18:49.458Z,2.00
2023-01-10T02:21:54.213Z,1.67
2023-01-10T02:24:34.673Z,1.63
2023-01-10T02:27:10.126Z,1.70
2023-01-10T02:30:00.139Z,1.67
2023-01-10T02:33:04.297Z,1.45
2023-01-10T02:35:41.721Z,2.65
2023-01-10T02:38:33.842Z,1.67
2023-01-10T02:41:11.104Z,1.65
2023-01-10T02:43:46.218Z,1.75
2023-01-10T02:46:28.273Z,1.45
2023-01-10T02:48:56.046Z,1.52
2023-01-10T02:51:24.814Z,2.47
2023-01-10T02:54:12.379Z,1.92
2023-01-10T02:57:00.748Z,1.88
2023-01-10T02:59:46.225Z,1.80
2023-01-10T03:02:13.399Z,1.80
2023-01-10T03:04:54.418Z,1.50
2023-01-10T03:07:44.543Z,1.83
2023-01-10T03:10:17.713Z,1.65
2023-01-10T03:12:57.475Z,1.45
2023-01-10T03:15:35.773Z,2.33
2023-01-10T03:18:14.285Z,1.45
2023-01-10T03:20:43.285Z,1.58
2023-01-10T03:23:11.264Z,1.27
2023-01-10T03:25:38.793Z,1.92
2023-01-10T03:28:15.914Z,1.45
2023-01-10T03:31:04.432Z,1.80
2023-01-10T03:33:32.683Z,1.80
2023-01-10T03:36:09.211Z,1.33
2023-01-10T03:38:45.330Z,1.40
2023-01-10T03:41:25.813Z,1.30
2023-01-10T03:44:23.740Z,2.28
2023-01-10T03:46:55.548Z,1.17
2023-01-10T03:49:24.021Z,1.92
2023-01-10T03:51:51.626Z,1.27
2023-01-10T03:54:18.849Z,2.15
2023-01-10T03:56:50.005Z,1.25
2023-01-10T03:59:22.174Z,1.20
2023-01-10T04:04:16.427Z,1.75
2023-01-10T04:06:43.628Z,1.27
2023-01-10T04:09:10.846Z,1.95
2023-01-10T04:11:38.002Z,2.47
2023-01-10T04:14:05.394Z,1.80
2023-01-10T04:16:32.663Z,1.23
2023-01-10T04:18:59.923Z,1.42
2023-01-10T04:21:27.026Z,0.90
2023-01-10T04:23:54.173Z,1.85
2023-01-10T04:26:21.309Z,1.27
2023-01-10T04:28:48.387Z,1.77
2023-01-10T04:31:15.657Z,1.92
2023-01-10T04:33:42.758Z,1.75
2023-01-10T04:36:09.896Z,1.40
2023-01-10T04:38:37.071Z,2.20
2023-01-10T04:41:04.330Z,1.80
2023-01-10T04:43:31.506Z,1.80
2023-01-10T04:45:58.748Z,1.77
2023-01-10T04:48:27.162Z,1.90
2023-01-10T04:50:54.824Z,1.70
2023-01-10T04:53:22.319Z,1.58
2023-01-10T04:55:49.886Z,1.52
2023-01-10T04:58:17.283Z,1.98
2023-01-10T05:00:44.454Z,2.53
2023-01-10T05:03:11.673Z,1.25
2023-01-10T05:05:38.788Z,1.98
2023-01-10T05:08:05.968Z,1.92
2023-01-10T05:10:33.076Z,2.22
2023-01-10T05:13:00.246Z,1.92
2023-01-10T05:15:27.370Z,2.05
2023-01-10T05:17:58.852Z,1.25
2023-01-10T05:20:26.093Z,2.42
2023-01-10T05:22:53.380Z,1.63
2023-01-10T05:25:20.554Z,2.13
2023-01-10T05:27:47.742Z,2.05
2023-01-10T05:30:15.074Z,1.80
2023-01-10T05:32:42.301Z,2.00
2023-01-10T05:35:09.754Z,1.73
2023-01-10T05:37:38.137Z,1.85
2023-01-10T05:40:05.794Z,2.03
2023-01-10T05:42:32.877Z,2.13
2023-01-10T05:44:59.940Z,2.20
2023-01-10T05:47:27.253Z,2.70
2023-01-10T05:49:54.432Z,2.13
2023-01-10T05:52:21.774Z,2.22
2023-01-10T05:54:48.938Z,1.90
2023-01-10T05:57:16.167Z,3.20
2023-01-10T05:59:43.361Z,1.95
2023-01-10T06:02:10.605Z,1.75
2023-01-10T06:04:37.797Z,2.15
2023-01-10T06:07:04.973Z,1.85
2023-01-10T06:09:32.697Z,1.83
2023-01-10T06:11:59.887Z,1.45
2023-01-10T06:14:27.018Z,1.85
2023-01-10T06:16:54.191Z,2.00
2023-01-10T06:19:21.285Z,1.70
2023-01-10T06:21:48.485Z,2.15
2023-01-10T06:24:15.653Z,2.22
2023-01-10T06:26:42.751Z,1.75
2023-01-10T06:29:09.907Z,1.70
2023-01-10T06:31:37.071Z,1.83
2023-01-10T06:34:04.530Z,2.50
2023-01-10T06:36:32.436Z,1.45
2023-01-10T06:38:59.888Z,1.83
2023-01-10T06:41:27.149Z,2.38
2023-01-10T06:43:54.614Z,1.92
2023-01-10T06:46:22.287Z,2.10
2023-01-10T06:48:49.777Z,2.65
2023-01-10T06:51:19.945Z,2.40
2023-01-10T06:53:47.455Z,2.03
2023-01-10T06:56:14.626Z,1.90
2023-01-10T06:58:41.770Z,2.55
2023-01-10T07:01:14.141Z,2.30
2023-01-10T07:03:41.503Z,3.25
2023-01-10T07:06:12.482Z,2.45
2023-01-10T07:08:40.965Z,3.38
2023-01-10T07:11:09.017Z,1.95
2023-01-10T07:13:36.345Z,2.28
2023-01-10T07:16:04.475Z,2.25
2023-01-10T07:18:32.245Z,2.00
2023-01-10T07:20:59.358Z,2.20
2023-01-10T07:23:26.502Z,2.25
2023-01-10T07:25:53.781Z,2.28
2023-01-10T07:28:20.955Z,2.95
2023-01-10T07:30:48.047Z,2.75
2023-01-10T07:33:15.164Z,2.95
2023-01-10T07:35:42.301Z,2.38
2023-01-10T07:38:09.546Z,2.22
2023-01-10T07:40:36.815Z,2.47
2023-01-10T07:43:04.008Z,3.20
2023-01-10T07:45:31.791Z,3.45
2023-01-10T07:47:59.623Z,2.15
2023-01-10T07:50:27.606Z,2.83
2023-01-10T07:52:55.969Z,2.10
2023-01-10T07:55:23.495Z,3.63
2023-01-10T07:57:51.395Z,3.03
2023-01-10T08:00:19.040Z,1.92
2023-01-10T08:02:46.507Z,2.63
2023-01-10T08:05:14.425Z,3.17
2023-01-10T08:07:41.574Z,3.20
2023-01-10T08:10:08.993Z,3.25
2023-01-10T08:12:36.147Z,2.65
2023-01-10T08:15:03.302Z,2.55
2023-01-10T08:17:33.104Z,2.38
2023-01-10T08:20:00.202Z,1.95
2023-01-10T08:22:27.361Z,3.40
2023-01-10T08:24:54.583Z,2.85
2023-01-10T08:27:21.703Z,2.13
2023-01-10T08:29:48.802Z,2.75
2023-01-10T08:32:15.910Z,2.45
2023-01-10T08:34:43.007Z,2.85
2023-01-10T08:37:13.778Z,3.40
2023-01-10T08:39:40.903Z,2.75
2023-01-10T08:42:08.089Z,2.40
2023-01-10T08:44:35.343Z,1.70
2023-01-10T08:47:02.567Z,2.33
2023-01-10T08:49:29.725Z,2.97
2023-01-10T08:51:56.931Z,2.65
2023-01-10T08:54:24.144Z,3.15
2023-01-10T08:56:51.276Z,2.67
2023-01-10T08:59:18.504Z,2.15
2023-01-10T09:01:45.687Z,2.30
2023-01-10T09:04:12.900Z,2.97
2023-01-10T09:06:40.065Z,2.40
2023-01-10T09:09:07.232Z,3.30
2023-01-10T09:11:34.352Z,2.63
2023-01-10T09:14:01.423Z,2.08
2023-01-10T09:16:28.658Z,3.10
2023-01-10T09:18:56.272Z,2.83
2023-01-10T09:21:23.464Z,3.08
2023-01-10T09:23:50.549Z,3.15
2023-01-10T09:26:18.028Z,3.20
2023-01-10T09:28:46.876Z,3.33
2023-01-10T09:31:15.298Z,3.10
2023-01-10T09:33:47.088Z,3.38
2023-01-10T09:36:15.590Z,3.20
2023-01-10T09:38:43.049Z,3.05
2023-01-10T09:41:35.018Z,2.75
2023-01-10T09:44:06.970Z,3.17
2023-01-10T09:46:45.274Z,3.13
2023-01-10T09:49:30.230Z,4.60
2023-01-10T09:51:59.219Z,3.38
2023-01-10T09:54:28.867Z,4.43
2023-01-10T09:56:56.597Z,4.57
2023-01-10T09:59:24.994Z,4.18
2023-01-10T10:01:55.072Z,3.90
2023-01-10T10:04:22.394Z,3.60
2023-01-10T10:06:52.854Z,4.35
2023-01-10T10:09:23.761Z,4.57
2023-01-10T10:12:09.140Z,4.15
2023-01-10T10:14:38.985Z,3.92
2023-01-10T10:17:27.526Z,3.80
2023-01-10T10:20:13.609Z,4.57
2023-01-10T10:22:59.417Z,4.70
2023-01-10T10:25:40.441Z,4.15
2023-01-10T10:28:31.634Z,3.60
2023-01-10T10:31:01.826Z,4.40
2023-01-10T10:33:53.652Z,4.28
2023-01-10T10:36:30.011Z,4.40
2023-01-10T10:38:59.028Z,3.63
2023-01-10T10:41:26.072Z,3.70
2023-01-10T10:43:54.321Z,3.38
2023-01-10T10:46:22.212Z,2.90
2023-01-10T10:48:54.471Z,3.47
2023-01-10T10:51:28.282Z,3.50
2023-01-10T10:53:56.251Z,3.40
2023-01-10T10:56:25.383Z,2.65
2023-01-10T10:58:55.489Z,2.78
2023-01-10T11:01:25.539Z,3.78
2023-01-10T11:03:56.561Z,2.63
2023-01-10T11:06:24.994Z,2.28
2023-01-10T11:08:54.076Z,3.05
2023-01-10T11:11:33.978Z,2.22
2023-01-10T11:14:02.458Z,2.33
2023-01-10T11:16:36.604Z,2.38
2023-01-10T11:19:20.828Z,2.83
2023-01-10T11:21:58.514Z,2.42
2023-01-10T11:24:34.295Z,2.35
2023-01-10T11:27:18.427Z,4.75
2023-01-10T11:29:50.511Z,2.05
2023-01-10T11:32:19.187Z,2.33
2023-01-10T11:34:54.029Z,3.05
2023-01-10T11:37:25.114Z,2.88
2023-01-10T11:40:10.827Z,2.80
2023-01-10T11:42:37.985Z,3.13
2023-01-10T11:45:20.529Z,2.15
2023-01-10T11:47:49.662Z,2.60
2023-01-10T11:50:20.853Z,2.47
2023-01-10T11:52:49.034Z,2.30
2023-01-10T11:55:20.539Z,2.00
2023-01-10T11:57:55.120Z,3.45
2023-01-10T12:00:22.594Z,2.22
2023-01-10T12:02:52.484Z,2.45
2023-01-10T12:05:20.969Z,2.58
2023-01-10T12:08:06.090Z,2.22
2023-01-10T12:10:34.019Z,2.40
2023-01-10T12:13:13.974Z,2.55
2023-01-10T12:15:41.178Z,2.10
2023-01-10T12:18:08.372Z,3.60
2023-01-10T12:20:41.063Z,3.00
2023-01-10T12:23:11.005Z,3.22
2023-01-10T12:25:40.703Z,2.47
2023-01-10T12:28:23.036Z,2.60
2023-01-10T12:30:52.781Z,3.80
2023-01-10T12:33:25.105Z,2.90
2023-01-10T12:36:10.815Z,2.30
2023-01-10T12:39:05.328Z,2.47
2023-01-10T12:42:09.244Z,2.80
2023-01-10T12:44:43.758Z,2.85
2023-01-10T12:47:23.477Z,2.22
2023-01-10T12:49:53.857Z,3.33
2023-01-10T12:52:30.295Z,2.85
2023-01-10T12:54:57.751Z,2.10
2023-01-10T12:57:27.657Z,2.03
2023-01-10T12:59:55.707Z,2.72
2023-01-10T13:02:24.395Z,3.28
2023-01-10T13:04:57.269Z,1.75
2023-01-10T13:07:28.356Z,2.42
2023-01-10T13:09:55.708Z,2.13
2023-01-10T13:12:24.993Z,2.63
2023-01-10T13:14:58.634Z,2.42
2023-01-10T13:17:36.036Z,2.10
2023-01-10T13:20:19.904Z,2.10
2023-01-10T13:22:52.439Z,2.05
2023-01-10T13:25:20.924Z,2.83
2023-01-10T13:27:52.986Z,2.60
2023-01-10T13:32:55.807Z,1.92
2023-01-10T13:35:22.977Z,1.90
2023-01-10T13:37:54.788Z,1.92
2023-01-10T13:40:28.168Z,1.92
2023-01-10T13:43:20.242Z,3.03
2023-01-10T13:45:47.364Z,2.08
2023-01-10T13:48:24.563Z,2.33
2023-01-10T13:50:52.811Z,2.13
2023-01-10T13:53:19.920Z,2.88
2023-01-10T13:55:53.254Z,1.80
2023-01-10T13:58:21.304Z,1.67
2023-01-10T14:01:11.016Z,1.50
2023-01-10T14:03:48.942Z,1.83
2023-01-10T14:06:29.629Z,2.60
2023-01-10T14:08:56.686Z,1.55
2023-01-10T14:11:25.806Z,2.08
2023-01-10T14:13:55.096Z,1.70
2023-01-10T14:16:28.179Z,2.90
2023-01-10T14:18:55.312Z,2.40
2023-01-10T14:21:25.057Z,1.85
2023-01-10T14:23:53.128Z,2.13
2023-01-10T14:26:27.358Z,2.10
2023-01-10T14:28:54.647Z,2.03
2023-01-10T14:31:27.959Z,1.85
2023-01-10T14:33:55.455Z,2.33
2023-01-10T14:36:24.910Z,1.65
2023-01-10T14:38:56.814Z,2.05
2023-01-10T14:43:56.094Z,1.88
2023-01-10T14:46:32.297Z,1.50
2023-01-10T14:49:01.236Z,2.97
2023-01-10T14:51:31.274Z,1.95
2023-01-10T14:54:11.526Z,2.75
2023-01-10T14:56:43.396Z,1.92
2023-01-10T14:59:29.883Z,2.20
2023-01-10T15:01:57.029Z,2.25
2023-01-10T15:04:26.687Z,1.98
2023-01-10T15:07:02.616Z,2.17
2023-01-10T15:09:30.964Z,1.88
2023-01-10T15:12:02.817Z,2.25
2023-01-10T15:14:30.094Z,2.20
2023-01-10T15:17:02.108Z,2.58
2023-01-10T15:21:56.545Z,1.40
2023-01-10T15:24:33.274Z,2.42
2023-01-10T15:27:01.655Z,1.83
2023-01-10T15:29:28.788Z,2.42
2023-01-10T15:31:58.110Z,1.65
2023-01-10T15:34:27.771Z,1.73
2023-01-10T15:36:56.100Z,1.48
2023-01-10T15:39:26.087Z,1.75
2023-01-10T15:41:58.556Z,2.28
2023-01-10T15:44:39.818Z,2.20
2023-01-10T15:47:07.520Z,1.63
2023-01-10T15:49:34.828Z,1.83
2023-01-10T15:52:01.939Z,1.80
2023-01-10T15:54:30.431Z,1.88
2023-01-10T15:57:04.100Z,1.77
2023-01-10T15:59:39.704Z,1.85
2023-01-10T16:02:16.569Z,1.90
2023-01-10T16:04:44.140Z,1.58
2023-01-10T16:07:20.423Z,2.55
2023-01-10T16:10:07.442Z,2.40
2023-01-10T16:12:54.817Z,1.25
2023-01-10T16:15:32.363Z,1.90
2023-01-10T16:17:59.799Z,2.20
2023-01-10T16:20:29.633Z,2.72
2023-01-10T16:22:57.116Z,2.80
2023-01-10T16:25:34.768Z,2.50
2023-01-10T16:28:02.240Z,2.15
2023-01-10T16:30:31.107Z,1.45
2023-01-10T16:32:58.899Z,1.50
2023-01-10T16:35:26.213Z,2.10
2023-01-10T16:38:03.851Z,1.73
2023-01-10T16:40:38.831Z,2.30
2023-01-10T16:43:18.199Z,1.83
2023-01-10T16:45:49.226Z,1.60
2023-01-10T16:48:20.311Z,2.03
2023-01-10T16:50:48.564Z,1.40
2023-01-10T16:53:17.073Z,1.73
2023-01-10T16:55:46.089Z,1.58
2023-01-10T16:58:13.968Z,1.67
2023-01-10T17:00:46.982Z,2.22
2023-01-10T17:03:15.623Z,3.38
2023-01-10T17:05:42.908Z,1.58
2023-01-10T17:08:14.736Z,1.50
2023-01-10T17:10:42.011Z,1.92
2023-01-10T17:13:10.723Z,1.90
2023-01-10T17:15:37.862Z,1.27
2023-01-10T17:18:05.263Z,1.60
2023-01-10T17:20:32.482Z,1.55
2023-01-10T17:22:59.648Z,2.30
2023-01-10T17:25:26.809Z,2.03
2023-01-10T17:27:53.861Z,1.75
2023-01-10T17:30:21.321Z,1.10
2023-01-10T17:32:48.460Z,1.30
2023-01-10T17:35:15.534Z,1.20
2023-01-10T17:37:42.670Z,1.35
2023-01-10T17:40:10.151Z,1.17
2023-01-10T17:42:37.268Z,1.38
2023-01-10T17:45:04.566Z,1.42
2023-01-10T17:47:31.739Z,0.95
2023-01-10T17:49:58.856Z,0.90
2023-01-10T17:52:26.023Z,1.00
2023-01-10T17:54:53.105Z,1.63
2023-01-10T17:57:20.225Z,1.85
2023-01-10T17:59:47.307Z,1.25
2023-01-10T18:02:17.489Z,1.02
2023-01-10T18:04:45.300Z,1.25
2023-01-10T18:07:13.191Z,0.80
2023-01-10T18:09:40.361Z,1.30
2023-01-10T18:12:07.637Z,1.85
2023-01-10T18:14:37.572Z,1.27
2023-01-10T18:17:06.839Z,1.10
2023-01-10T18:19:34.780Z,1.10
2023-01-10T18:22:22.252Z,1.42
2023-01-10T18:24:51.208Z,1.27
2023-01-10T18:27:18.311Z,1.40
2023-01-10T18:29:45.490Z,1.15
2023-01-10T18:32:12.602Z,1.30
2023-01-10T18:34:39.701Z,1.10
2023-01-10T18:37:06.833Z,1.15
2023-01-10T18:39:34.021Z,2.05
2023-01-10T18:42:01.203Z,1.20
2023-01-10T18:44:28.554Z,1.23
2023-01-10T18:46:55.689Z,1.23
2023-01-10T18:49:22.762Z,2.10
2023-01-10T18:51:49.876Z,1.85
2023-01-10T18:54:17.009Z,1.40
2023-01-10T18:56:44.111Z,1.25
2023-01-10T18:59:11.267Z,1.30
2023-01-10T19:01:38.441Z,1.20
2023-01-10T19:04:05.683Z,1.35
2023-01-10T19:06:32.954Z,1.92
2023-01-10T19:09:00.128Z,1.75
2023-01-10T19:11:27.303Z,1.65
2023-01-10T19:13:54.412Z,1.63
2023-01-10T19:16:22.709Z,1.83
2023-01-10T19:18:51.054Z,1.90
2023-01-10T19:21:18.508Z,1.70
2023-01-10T19:23:46.705Z,1.60
2023-01-10T19:26:14.436Z,1.20
2023-01-10T19:28:42.452Z,2.28
2023-01-10T19:31:09.821Z,1.90
2023-01-10T19:33:41.715Z,1.48
2023-01-10T19:36:09.034Z,1.83
2023-01-10T19:38:36.178Z,1.98
2023-01-10T19:41:03.345Z,1.75
2023-01-10T19:43:30.920Z,1.90
2023-01-10T19:45:58.212Z,1.73
2023-01-10T19:48:25.365Z,2.33
2023-01-10T19:50:52.626Z,2.47
2023-01-10T19:53:23.802Z,2.17
2023-01-10T19:55:59.613Z,2.08
2023-01-10T19:58:26.737Z,2.33
2023-01-10T20:00:53.919Z,2.55
2023-01-10T20:03:21.048Z,2.55
2023-01-10T20:05:48.277Z,2.63
2023-01-10T20:08:15.387Z,2.42
2023-01-10T20:10:42.563Z,3.10
2023-01-10T20:13:10.495Z,3.00
2023-01-10T20:15:37.781Z,3.55
2023-01-10T20:18:04.998Z,3.33
2023-01-10T20:20:32.251Z,3.15
2023-01-10T20:22:59.412Z,3.08
2023-01-10T20:25:26.577Z,3.55
2023-01-10T20:27:53.679Z,2.53
2023-01-10T20:30:20.847Z,3.60
2023-01-10T20:32:48.559Z,3.40
2023-01-10T20:35:15.731Z,3.47
2023-01-10T20:37:42.874Z,3.92
2023-01-10T20:40:10.326Z,3.70
2023-01-10T20:42:39.024Z,4.03
2023-01-10T20:45:07.531Z,3.90
2023-01-10T20:47:34.663Z,4.32
2023-01-10T20:50:01.781Z,3.65
2023-01-10T20:52:28.942Z,4.20
2023-01-10T20:54:56.337Z,4.38
2023-01-10T20:57:23.588Z,4.07
2023-01-10T20:59:50.748Z,3.83
2023-01-10T21:02:18.025Z,4.53
2023-01-10T21:04:45.219Z,3.40
2023-01-10T21:07:14.916Z,4.88
2023-01-10T21:09:42.026Z,4.05
2023-01-10T21:12:22.029Z,5.22
2023-01-10T21:14:50.105Z,3.92
2023-01-10T21:17:17.220Z,3.92
2023-01-10T21:19:44.306Z,3.92
2023-01-10T21:22:11.463Z,4.28
2023-01-10T21:24:38.628Z,4.28
2023-01-10T21:27:05.732Z,4.10
2023-01-10T21:29:32.925Z,4.00
2023-01-10T21:32:00.089Z,4.07
2023-01-10T21:34:27.513Z,4.47
2023-01-10T21:36:54.664Z,4.35
2023-01-10T21:39:21.793Z,5.07
2023-01-10T21:42:07.393Z,4.47
2023-01-10T21:44:34.587Z,4.15
2023-01-10T21:47:01.895Z,4.22
2023-01-10T21:49:29.016Z,4.03
2023-01-10T21:51:57.741Z,4.68
2023-01-10T21:54:24.991Z,4.45
2023-01-10T21:56:52.127Z,4.57
2023-01-10T21:59:19.298Z,4.25
2023-01-10T22:01:47.070Z,3.83
2023-01-10T22:04:17.116Z,3.65
2023-01-10T22:06:44.635Z,3.85
2023-01-10T22:09:11.741Z,4.43
2023-01-10T22:11:38.825Z,4.30
2023-01-10T22:14:05.874Z,4.75
2023-01-10T22:16:33.012Z,4.07
2023-01-10T22:19:00.159Z,3.60
2023-01-10T22:21:27.311Z,3.80
2023-01-10T22:23:54.497Z,3.35
2023-01-10T22:26:21.612Z,4.00
2023-01-10T22:28:48.746Z,3.97
2023-01-10T22:31:15.903Z,3.05
2023-01-10T22:33:43.114Z,3.17
2023-01-10T22:36:17.748Z,3.50
2023-01-10T22:38:45.564Z,2.92
2023-01-10T22:41:14.079Z,2.85
2023-01-10T22:43:41.250Z,3.20
2023-01-10T22:46:08.525Z,3.00
2023-01-10T22:48:36.279Z,2.88
2023-01-10T22:51:05.263Z,3.17
2023-01-10T22:53:32.651Z,2.80
2023-01-10T22:56:00.434Z,2.75
2023-01-10T22:58:27.657Z,3.05
2023-01-10T23:00:54.715Z,2.60
2023-01-10T23:03:21.836Z,3.20
2023-01-10T23:05:48.918Z,3.03
2023-01-10T23:08:15.981Z,2.80
2023-01-10T23:10:43.632Z,2.55
2023-01-10T23:13:10.698Z,3.22
2023-01-10T23:15:37.798Z,2.72
2023-01-10T23:18:04.933Z,2.75
2023-01-10T23:20:32.083Z,2.65
2023-01-10T23:22:59.195Z,2.55
2023-01-10T23:25:26.279Z,2.38
2023-01-10T23:27:54.243Z,3.28
2023-01-10T23:30:22.457Z,2.70
2023-01-10T23:32:51.229Z,3.00
2023-01-10T23:35:18.280Z,2.90
2023-01-10T23:37:45.344Z,2.80
2023-01-10T23:40:12.606Z,2.95
2023-01-10T23:42:39.649Z,2.58
2023-01-10T23:45:07.067Z,2.92
2023-01-10T23:47:34.111Z,3.03
2023-01-10T23:50:01.169Z,2.90
2023-01-10T23:52:28.269Z,2.88
2023-01-10T23:54:55.343Z,3.20
2023-01-10T23:57:22.376Z,3.05
2023-01-10T23:59:49.419Z,3.15
